sensor_id;sensor_type;location;lat;lon;timestamp;pressure;altitude;pressure_sealevel;temperature;humidity
5238;BME280;2639;49.700;7.962;2023-08-21T07:26:56;99358.47;;;23.31;100.00
5238;BME280;2639;49.700;7.962;2023-08-21T07:27:59;99354.38;;;23.40;100.00
5238;BME280;2639;49.700;7.962;2023-08-21T07:29:01;99358.13;;;23.48;100.00
5238;BME280;2639;49.700;7.962;2023-08-21T07:30:06;99358.25;;;23.51;100.00
5238;BME280;2639;49.700;7.962;2023-08-21T07:31:09;99360.22;;;23.58;100.00
5238;BME280;2639;49.700;7.962;2023-08-21T07:32:12;99363.97;;;23.66;100.00
5238;BME280;2639;49.700;7.962;2023-08-21T07:33:15;99367.78;;;23.75;100.00
5238;BME280;2639;49.700;7.962;2023-08-21T07:34:18;99368.72;;;23.77;100.00
5238;BME280;2639;49.700;7.962;2023-08-21T07:35:20;99364.50;;;23.82;100.00
5238;BME280;2639;49.700;7.962;2023-08-21T07:36:24;99366.34;;;23.84;100.00
5238;BME280;2639;49.700;7.962;2023-08-21T07:37:26;99362.06;;;23.88;100.00
5238;BME280;2639;49.700;7.962;2023-08-21T07:38:29;99357.88;;;23.93;100.00
5238;BME280;2639;49.700;7.962;2023-08-21T07:39:31;99365.84;;;23.96;100.00
5238;BME280;2639;49.700;7.962;2023-08-21T07:40:34;99358.03;;;23.99;100.00
5238;BME280;2639;49.700;7.962;2023-08-21T07:41:36;99356.38;;;24.01;100.00
5238;BME280;2639;49.700;7.962;2023-08-21T07:42:42;99364.38;;;24.06;100.00
5238;BME280;2639;49.700;7.962;2023-08-21T07:43:44;99364.47;;;24.09;100.00
5238;BME280;2639;49.700;7.962;2023-08-21T07:44:47;99362.03;;;24.15;100.00
5238;BME280;2639;49.700;7.962;2023-08-21T07:45:49;99358.66;;;24.19;100.00
5238;BME280;2639;49.700;7.962;2023-08-21T07:46:52;99364.06;;;24.24;98.68
5238;BME280;2639;49.700;7.962;2023-08-21T07:47:56;99356.38;;;24.30;97.76
5238;BME280;2639;49.700;7.962;2023-08-21T07:49:14;99360.19;;;24.41;98.05
5238;BME280;2639;49.700;7.962;2023-08-21T07:50:17;99358.66;;;24.48;96.41
5238;BME280;2639;49.700;7.962;2023-08-21T07:51:20;99363.22;;;24.53;96.75
5238;BME280;2639;49.700;7.962;2023-08-21T07:52:22;99358.09;;;24.58;97.65
5238;BME280;2639;49.700;7.962;2023-08-21T07:53:25;99355.59;;;24.63;97.08
5238;BME280;2639;49.700;7.962;2023-08-21T07:54:28;99360.19;;;24.70;96.81
5238;BME280;2639;49.700;7.962;2023-08-21T07:55:31;99367.28;;;24.74;96.54
5238;BME280;2639;49.700;7.962;2023-08-21T07:56:33;99360.31;;;24.76;95.85
5238;BME280;2639;49.700;7.962;2023-08-21T07:57:37;99359.56;;;24.80;97.28
5238;BME280;2639;49.700;7.962;2023-08-21T07:58:41;99365.06;;;24.89;97.66
5238;BME280;2639;49.700;7.962;2023-08-21T07:59:44;99364.41;;;24.96;97.61
5238;BME280;2639;49.700;7.962;2023-08-21T08:00:46;99362.78;;;25.02;96.83
5238;BME280;2639;49.700;7.962;2023-08-21T08:01:50;99353.31;;;25.07;96.25
5238;BME280;2639;49.700;7.962;2023-08-21T08:02:52;99357.88;;;25.14;95.96
5238;BME280;2639;49.700;7.962;2023-08-21T08:03:55;99359.84;;;25.21;96.41
5238;BME280;2639;49.700;7.962;2023-08-21T08:04:58;99353.88;;;25.28;95.70
5238;BME280;2639;49.700;7.962;2023-08-21T08:06:01;99359.31;;;25.34;93.61
5238;BME280;2639;49.700;7.962;2023-08-21T08:07:03;99359.38;;;25.37;93.10
5238;BME280;2639;49.700;7.962;2023-08-21T08:08:06;99356.91;;;25.44;93.37
5238;BME280;2639;49.700;7.962;2023-08-21T08:09:09;99357.09;;;25.53;93.18
5238;BME280;2639;49.700;7.962;2023-08-21T08:10:12;99358.19;;;25.61;93.48
5238;BME280;2639;49.700;7.962;2023-08-21T08:11:14;99361.00;;;25.67;93.25
5238;BME280;2639;49.700;7.962;2023-08-21T08:12:17;99354.97;;;25.73;93.55
5238;BME280;2639;49.700;7.962;2023-08-21T08:13:22;99355.19;;;25.82;94.21
5238;BME280;2639;49.700;7.962;2023-08-21T08:14:27;99347.59;;;25.93;93.24
5238;BME280;2639;49.700;7.962;2023-08-21T08:15:29;99349.50;;;26.00;92.11
5238;BME280;2639;49.700;7.962;2023-08-21T08:16:32;99347.84;;;26.05;91.36
5238;BME280;2639;49.700;7.962;2023-08-21T08:17:34;99349.72;;;26.09;89.46
5238;BME280;2639;49.700;7.962;2023-08-21T08:18:37;99346.22;;;26.10;87.28
5238;BME280;2639;49.700;7.962;2023-08-21T08:19:39;99348.06;;;26.14;86.60
5238;BME280;2639;49.700;7.962;2023-08-21T08:20:43;99349.91;;;26.18;85.86
5238;BME280;2639;49.700;7.962;2023-08-21T08:21:45;99342.94;;;26.22;85.92
5238;BME280;2639;49.700;7.962;2023-08-21T08:22:51;99351.00;;;26.28;85.90
5238;BME280;2639;49.700;7.962;2023-08-21T08:23:53;99341.47;;;26.35;86.45
5238;BME280;2639;49.700;7.962;2023-08-21T08:24:56;99352.13;;;26.41;85.75
5238;BME280;2639;49.700;7.962;2023-08-21T08:25:58;99347.00;;;26.47;85.98
5238;BME280;2639;49.700;7.962;2023-08-21T08:27:02;99340.06;;;26.52;86.19
5238;BME280;2639;49.700;7.962;2023-08-21T08:28:04;99342.84;;;26.57;85.38
5238;BME280;2639;49.700;7.962;2023-08-21T08:29:07;99347.41;;;26.65;84.48
5238;BME280;2639;49.700;7.962;2023-08-21T08:30:11;99349.28;;;26.73;83.90
5238;BME280;2639;49.700;7.962;2023-08-21T08:31:15;99342.38;;;26.78;83.20
5238;BME280;2639;49.700;7.962;2023-08-21T08:32:17;99342.59;;;26.89;84.42
5238;BME280;2639;49.700;7.962;2023-08-21T08:33:20;99344.59;;;27.03;85.47
5238;BME280;2639;49.700;7.962;2023-08-21T08:34:22;99348.28;;;27.12;85.27
5238;BME280;2639;49.700;7.962;2023-08-21T08:35:26;99336.94;;;27.17;85.51
5238;BME280;2639;49.700;7.962;2023-08-21T08:36:28;99346.75;;;27.24;84.24
5238;BME280;2639;49.700;7.962;2023-08-21T08:37:31;99344.19;;;27.29;82.83
5238;BME280;2639;49.700;7.962;2023-08-21T08:38:33;99346.97;;;27.35;83.53
5238;BME280;2639;49.700;7.962;2023-08-21T08:39:36;99347.06;;;27.43;82.83
5238;BME280;2639;49.700;7.962;2023-08-21T08:40:43;99345.44;;;27.49;81.18
5238;BME280;2639;49.700;7.962;2023-08-21T08:41:52;99346.47;;;27.58;80.86
5238;BME280;2639;49.700;7.962;2023-08-21T08:42:56;99346.56;;;27.65;80.59
5238;BME280;2639;49.700;7.962;2023-08-21T08:44:01;99345.84;;;27.74;79.90
5238;BME280;2639;49.700;7.962;2023-08-21T08:45:04;99344.03;;;27.73;75.06
5238;BME280;2639;49.700;7.962;2023-08-21T08:46:10;99336.97;;;27.69;74.05
5238;BME280;2639;49.700;7.962;2023-08-21T08:47:13;99343.91;;;27.64;73.27
5238;BME280;2639;49.700;7.962;2023-08-21T08:48:17;99343.00;;;27.62;73.26
5238;BME280;2639;49.700;7.962;2023-08-21T08:49:22;99339.53;;;27.64;74.06
5238;BME280;2639;49.700;7.962;2023-08-21T08:50:29;99341.31;;;27.68;74.21
5238;BME280;2639;49.700;7.962;2023-08-21T08:51:34;99335.28;;;27.74;74.73
5238;BME280;2639;49.700;7.962;2023-08-21T08:52:42;99343.38;;;27.83;76.88
5238;BME280;2639;49.700;7.962;2023-08-21T08:53:45;99342.59;;;27.90;76.11
5238;BME280;2639;49.700;7.962;2023-08-21T08:54:48;99343.59;;;28.00;75.61
5238;BME280;2639;49.700;7.962;2023-08-21T08:55:50;99341.06;;;28.08;75.89
5238;BME280;2639;49.700;7.962;2023-08-21T08:56:53;99344.72;;;28.16;75.76
5238;BME280;2639;49.700;7.962;2023-08-21T08:57:56;99348.34;;;28.26;74.73
5238;BME280;2639;49.700;7.962;2023-08-21T08:58:59;99346.69;;;28.32;72.58
5238;BME280;2639;49.700;7.962;2023-08-21T09:00:01;99346.69;;;28.32;71.41
5238;BME280;2639;49.700;7.962;2023-08-21T09:01:05;99343.22;;;28.38;71.70
5238;BME280;2639;49.700;7.962;2023-08-21T09:02:08;99341.53;;;28.45;74.10
5238;BME280;2639;49.700;7.962;2023-08-21T09:03:12;99349.47;;;28.43;71.44
5238;BME280;2639;49.700;7.962;2023-08-21T09:04:14;99344.28;;;28.49;71.72
5238;BME280;2639;49.700;7.962;2023-08-21T09:05:18;99346.97;;;28.54;70.30
5238;BME280;2639;49.700;7.962;2023-08-21T09:06:20;99347.03;;;28.57;67.61
5238;BME280;2639;49.700;7.962;2023-08-21T09:07:23;99347.94;;;28.61;65.86
5238;BME280;2639;49.700;7.962;2023-08-21T09:08:25;99347.09;;;28.63;65.97
5238;BME280;2639;49.700;7.962;2023-08-21T09:09:37;99350.53;;;28.56;64.84
5238;BME280;2639;49.700;7.962;2023-08-21T09:10:40;99344.28;;;28.48;66.06
5238;BME280;2639;49.700;7.962;2023-08-21T09:11:45;99338.13;;;28.49;66.55
5238;BME280;2639;49.700;7.962;2023-08-21T09:12:48;99348.78;;;28.55;66.92
5238;BME280;2639;49.700;7.962;2023-08-21T09:13:52;99347.06;;;28.60;67.08
5238;BME280;2639;49.700;7.962;2023-08-21T09:14:54;99345.28;;;28.59;65.76
5238;BME280;2639;49.700;7.962;2023-08-21T09:15:58;99340.88;;;28.58;66.05
5238;BME280;2639;49.700;7.962;2023-08-21T09:17:01;99346.19;;;28.61;66.59
5238;BME280;2639;49.700;7.962;2023-08-21T09:18:08;99343.63;;;28.67;67.30
5238;BME280;2639;49.700;7.962;2023-08-21T09:19:13;99343.63;;;28.70;66.48
5238;BME280;2639;49.700;7.962;2023-08-21T09:20:24;99341.97;;;28.76;67.06
5238;BME280;2639;49.700;7.962;2023-08-21T09:21:27;99341.97;;;28.76;66.25
5238;BME280;2639;49.700;7.962;2023-08-21T09:22:31;99339.34;;;28.79;66.30
5238;BME280;2639;49.700;7.962;2023-08-21T09:23:33;99336.72;;;28.82;67.03
5238;BME280;2639;49.700;7.962;2023-08-21T09:24:37;99335.09;;;28.93;67.36
5238;BME280;2639;49.700;7.962;2023-08-21T09:25:40;99336.81;;;28.91;64.60
5238;BME280;2639;49.700;7.962;2023-08-21T09:26:43;99333.34;;;28.95;64.69
5238;BME280;2639;49.700;7.962;2023-08-21T09:27:45;99333.41;;;29.01;64.66
5238;BME280;2639;49.700;7.962;2023-08-21T09:28:51;99332.63;;;29.08;64.95
5238;BME280;2639;49.700;7.962;2023-08-21T09:29:53;99327.38;;;29.13;64.96
5238;BME280;2639;49.700;7.962;2023-08-21T09:30:56;99333.56;;;29.16;64.48
5238;BME280;2639;49.700;7.962;2023-08-21T09:32:00;99338.00;;;29.19;63.00
5238;BME280;2639;49.700;7.962;2023-08-21T09:34:35;99337.00;;;29.06;64.03
5238;BME280;2639;49.700;7.962;2023-08-21T09:35:39;99334.38;;;29.08;64.59
5238;BME280;2639;49.700;7.962;2023-08-21T09:36:43;99330.88;;;29.12;65.31
5238;BME280;2639;49.700;7.962;2023-08-21T09:37:57;99330.13;;;29.24;65.52
5238;BME280;2639;49.700;7.962;2023-08-21T09:39:00;99324.94;;;29.36;66.20
5238;BME280;2639;49.700;7.962;2023-08-21T09:40:09;99331.16;;;29.41;64.94
5238;BME280;2639;49.700;7.962;2023-08-21T09:41:13;99329.47;;;29.51;64.81
5238;BME280;2639;49.700;7.962;2023-08-21T09:42:18;99328.66;;;29.63;65.44
5238;BME280;2639;49.700;7.962;2023-08-21T09:43:23;99331.44;;;29.73;66.11
5238;BME280;2639;49.700;7.962;2023-08-21T09:44:27;99331.50;;;29.86;63.99
5238;BME280;2639;49.700;7.962;2023-08-21T09:45:30;99326.25;;;29.92;62.53
5238;BME280;2639;49.700;7.962;2023-08-21T09:46:34;99331.59;;;29.96;62.25
5238;BME280;2639;49.700;7.962;2023-08-21T09:47:38;99336.00;;;29.97;62.32
5238;BME280;2639;49.700;7.962;2023-08-21T09:48:43;99338.69;;;30.04;61.64
5238;BME280;2639;49.700;7.962;2023-08-21T09:49:47;99329.91;;;30.11;62.04
5238;BME280;2639;49.700;7.962;2023-08-21T09:50:51;99337.84;;;30.14;59.55
5238;BME280;2639;49.700;7.962;2023-08-21T09:51:54;99330.81;;;30.16;59.04
5238;BME280;2639;49.700;7.962;2023-08-21T09:52:59;99327.25;;;30.14;57.91
5238;BME280;2639;49.700;7.962;2023-08-21T09:54:02;99327.25;;;30.14;58.19
5238;BME280;2639;49.700;7.962;2023-08-21T09:55:07;99334.31;;;30.10;57.77
5238;BME280;2639;49.700;7.962;2023-08-21T09:56:10;99320.19;;;30.16;58.58
5238;BME280;2639;49.700;7.962;2023-08-21T09:57:14;99327.28;;;30.20;59.61
5238;BME280;2639;49.700;7.962;2023-08-21T09:58:19;99325.63;;;30.31;61.76
5238;BME280;2639;49.700;7.962;2023-08-21T09:59:23;99323.03;;;30.45;61.52
5238;BME280;2639;49.700;7.962;2023-08-21T10:00:29;99322.16;;;30.58;61.01
5238;BME280;2639;49.700;7.962;2023-08-21T10:01:34;99323.97;;;30.64;60.24
5238;BME280;2639;49.700;7.962;2023-08-21T10:02:38;99325.72;;;30.62;59.56
5238;BME280;2639;49.700;7.962;2023-08-21T10:03:43;99321.31;;;30.62;59.10
5238;BME280;2639;49.700;7.962;2023-08-21T10:04:52;99321.25;;;30.52;56.06
5238;BME280;2639;49.700;7.962;2023-08-21T10:05:58;99319.50;;;30.54;57.38
5238;BME280;2639;49.700;7.962;2023-08-21T10:07:02;99316.88;;;30.57;56.75
5238;BME280;2639;49.700;7.962;2023-08-21T10:08:09;99320.38;;;30.56;56.46
5238;BME280;2639;49.700;7.962;2023-08-21T10:09:13;99318.63;;;30.58;56.76
5238;BME280;2639;49.700;7.962;2023-08-21T10:10:18;99322.19;;;30.60;57.76
5238;BME280;2639;49.700;7.962;2023-08-21T10:11:21;99314.22;;;30.57;56.19
5238;BME280;2639;49.700;7.962;2023-08-21T10:12:26;99315.13;;;30.59;56.89
5238;BME280;2639;49.700;7.962;2023-08-21T10:13:29;99316.88;;;30.57;56.74
5238;BME280;2639;49.700;7.962;2023-08-21T10:14:33;99319.50;;;30.51;54.90
5238;BME280;2639;49.700;7.962;2023-08-21T10:15:37;99316.84;;;30.48;55.20
5238;BME280;2639;49.700;7.962;2023-08-21T10:16:41;99315.06;;;30.44;56.64
5238;BME280;2639;49.700;7.962;2023-08-21T10:17:44;99313.25;;;30.39;56.36
5238;BME280;2639;49.700;7.962;2023-08-21T10:18:48;99311.47;;;30.32;57.23
5238;BME280;2639;49.700;7.962;2023-08-21T10:19:52;99315.91;;;30.32;56.32
5238;BME280;2639;49.700;7.962;2023-08-21T10:20:56;99310.56;;;30.27;55.68
5238;BME280;2639;49.700;7.962;2023-08-21T10:22:12;99313.22;;;30.27;55.61
5238;BME280;2639;49.700;7.962;2023-08-21T10:23:24;99315.88;;;30.27;54.74
5238;BME280;2639;49.700;7.962;2023-08-21T10:24:28;99315.03;;;30.31;54.88
5238;BME280;2639;49.700;7.962;2023-08-21T10:25:41;99313.25;;;30.36;55.48
5238;BME280;2639;49.700;7.962;2023-08-21T10:26:44;99315.06;;;30.40;54.79
5238;BME280;2639;49.700;7.962;2023-08-21T10:27:51;99304.47;;;30.44;54.85
5238;BME280;2639;49.700;7.962;2023-08-21T10:28:55;99311.53;;;30.43;55.64
5238;BME280;2639;49.700;7.962;2023-08-21T10:30:12;99304.47;;;30.44;54.67
5238;BME280;2639;49.700;7.962;2023-08-21T10:31:27;99306.22;;;30.41;54.85
5238;BME280;2639;49.700;7.962;2023-08-21T10:32:31;99305.31;;;30.42;55.70
5238;BME280;2639;49.700;7.962;2023-08-21T10:33:46;99306.25;;;30.54;56.96
5238;BME280;2639;49.700;7.962;2023-08-21T10:34:53;99308.03;;;30.55;54.76
5238;BME280;2639;49.700;7.962;2023-08-21T10:35:56;99304.53;;;30.59;54.65
5238;BME280;2639;49.700;7.962;2023-08-21T10:37:05;99303.66;;;30.71;55.97
5238;BME280;2639;49.700;7.962;2023-08-21T10:38:09;99301.88;;;30.82;55.38
5238;BME280;2639;49.700;7.962;2023-08-21T10:39:14;99294.91;;;30.96;55.14
5238;BME280;2639;49.700;7.962;2023-08-21T10:40:22;99295.78;;;31.09;55.23
5238;BME280;2639;49.700;7.962;2023-08-21T10:41:28;99295.78;;;31.21;56.47
5238;BME280;2639;49.700;7.962;2023-08-21T10:42:38;99301.09;;;31.31;55.43
5238;BME280;2639;49.700;7.962;2023-08-21T10:43:44;99299.34;;;31.42;55.31
5238;BME280;2639;49.700;7.962;2023-08-21T10:44:49;99295.81;;;31.52;54.26
5238;BME280;2639;49.700;7.962;2023-08-21T10:45:54;99295.78;;;31.64;55.20
5238;BME280;2639;49.700;7.962;2023-08-21T10:47:13;99294.88;;;31.70;55.50
5238;BME280;2639;49.700;7.962;2023-08-21T10:48:17;99300.19;;;31.76;55.84
5238;BME280;2639;49.700;7.962;2023-08-21T10:49:20;99296.66;;;31.82;56.33
5238;BME280;2639;49.700;7.962;2023-08-21T10:50:26;99304.59;;;31.88;55.11
5238;BME280;2639;49.700;7.962;2023-08-21T10:51:29;99301.06;;;31.89;54.89
5238;BME280;2639;49.700;7.962;2023-08-21T10:52:36;99304.56;;;31.91;55.55
5238;BME280;2639;49.700;7.962;2023-08-21T10:53:40;99293.09;;;31.89;55.41
5238;BME280;2639;49.700;7.962;2023-08-21T10:54:46;99306.34;;;31.95;55.16
5238;BME280;2639;49.700;7.962;2023-08-21T10:55:53;99297.50;;;31.99;54.41
5238;BME280;2639;49.700;7.962;2023-08-21T10:56:56;99301.94;;;31.99;55.37
5238;BME280;2639;49.700;7.962;2023-08-21T10:58:04;99299.28;;;32.00;55.07
5238;BME280;2639;49.700;7.962;2023-08-21T10:59:11;99294.81;;;32.08;54.28
5238;BME280;2639;49.700;7.962;2023-08-21T11:00:14;99292.13;;;32.18;53.99
5238;BME280;2639;49.700;7.962;2023-08-21T11:01:18;99288.53;;;32.28;54.42
5238;BME280;2639;49.700;7.962;2023-08-21T11:02:22;99290.28;;;32.35;53.61
5238;BME280;2639;49.700;7.962;2023-08-21T11:03:26;99287.59;;;32.41;53.80
5238;BME280;2639;49.700;7.962;2023-08-21T11:04:39;99283.13;;;32.49;54.64
5238;BME280;2639;49.700;7.962;2023-08-21T11:08:31;99287.53;;;32.58;53.40
5238;BME280;2639;49.700;7.962;2023-08-21T11:09:35;99284.81;;;32.69;53.38
5238;BME280;2639;49.700;7.962;2023-08-21T11:10:38;99291.88;;;32.76;52.63
5238;BME280;2639;49.700;7.962;2023-08-21T11:11:43;99296.28;;;32.79;51.70
5238;BME280;2639;49.700;7.962;2023-08-21T11:12:48;99284.78;;;32.75;51.86
5238;BME280;2639;49.700;7.962;2023-08-21T11:13:53;99288.41;;;32.62;51.64
5238;BME280;2639;49.700;7.962;2023-08-21T11:14:55;99279.59;;;32.47;52.48
5238;BME280;2639;49.700;7.962;2023-08-21T11:16:31;99291.19;;;32.36;53.10
5238;BME280;2639;49.700;7.962;2023-08-21T11:17:34;99285.91;;;32.23;53.34
5238;BME280;2639;49.700;7.962;2023-08-21T11:20:45;99293.84;;;32.28;54.65
5238;BME280;2639;49.700;7.962;2023-08-21T11:21:50;99289.38;;;32.41;55.90
5238;BME280;2639;49.700;7.962;2023-08-21T11:24:20;99290.25;;;32.41;53.54
5238;BME280;2639;49.700;7.962;2023-08-21T11:27:22;99286.78;;;32.25;52.83
5238;BME280;2639;49.700;7.962;2023-08-21T11:28:34;99286.81;;;32.24;53.06
5238;BME280;2639;49.700;7.962;2023-08-21T11:29:37;99278.84;;;32.19;52.12
5238;BME280;2639;49.700;7.962;2023-08-21T11:30:40;99285.06;;;32.14;52.34
5238;BME280;2639;49.700;7.962;2023-08-21T11:31:42;99277.13;;;32.12;52.58
5238;BME280;2639;49.700;7.962;2023-08-21T11:32:49;99283.31;;;32.06;53.18
5238;BME280;2639;49.700;7.962;2023-08-21T11:33:51;99288.63;;;32.06;53.92
5238;BME280;2639;49.700;7.962;2023-08-21T11:34:55;99279.78;;;32.04;53.70
5238;BME280;2639;49.700;7.962;2023-08-21T11:35:59;99286.91;;;31.96;54.05
5238;BME280;2639;49.700;7.962;2023-08-21T11:37:04;99290.44;;;31.83;54.83
5238;BME280;2639;49.700;7.962;2023-08-21T11:38:06;99284.28;;;31.69;54.11
5238;BME280;2639;49.700;7.962;2023-08-21T11:39:15;99286.97;;;31.50;55.48
5238;BME280;2639;49.700;7.962;2023-08-21T11:40:17;99286.06;;;31.34;56.49
5238;BME280;2639;49.700;7.962;2023-08-21T11:41:20;99286.94;;;31.21;55.74
5238;BME280;2639;49.700;7.962;2023-08-21T11:42:28;99295.78;;;31.06;57.00
5238;BME280;2639;49.700;7.962;2023-08-21T11:43:35;99293.94;;;30.83;57.19
5238;BME280;2639;49.700;7.962;2023-08-21T11:44:41;99286.84;;;30.75;58.76
5238;BME280;2639;49.700;7.962;2023-08-21T11:45:51;99290.41;;;30.66;58.79
5238;BME280;2639;49.700;7.962;2023-08-21T11:47:00;99287.72;;;30.57;58.83
5238;BME280;2639;49.700;7.962;2023-08-21T11:48:06;99279.78;;;30.57;57.95
5238;BME280;2639;49.700;7.962;2023-08-21T11:49:08;99285.03;;;30.54;56.84
5238;BME280;2639;49.700;7.962;2023-08-21T11:50:11;99282.41;;;30.63;57.71
5238;BME280;2639;49.700;7.962;2023-08-21T11:52:47;99285.09;;;30.66;56.05
5238;BME280;2639;49.700;7.962;2023-08-21T11:53:49;99283.34;;;30.68;55.98
5238;BME280;2639;49.700;7.962;2023-08-21T11:54:53;99281.56;;;30.64;56.31
5238;BME280;2639;49.700;7.962;2023-08-21T11:56:56;99285.03;;;30.48;57.60
5238;BME280;2639;49.700;7.962;2023-08-21T11:57:58;99287.66;;;30.45;58.35
5238;BME280;2639;49.700;7.962;2023-08-21T11:59:00;99281.47;;;30.39;57.75
5238;BME280;2639;49.700;7.962;2023-08-21T12:00:03;99282.31;;;30.35;58.04
5238;BME280;2639;49.700;7.962;2023-08-21T12:02:41;99281.47;;;30.36;59.65
5238;BME280;2639;49.700;7.962;2023-08-21T12:04:14;99276.16;;;30.36;58.14
5238;BME280;2639;49.700;7.962;2023-08-21T12:05:16;99270.91;;;30.46;58.69
5238;BME280;2639;49.700;7.962;2023-08-21T12:06:19;99272.69;;;30.57;59.05
5238;BME280;2639;49.700;7.962;2023-08-21T12:07:21;99270.94;;;30.59;60.19
5238;BME280;2639;49.700;7.962;2023-08-21T12:08:25;99275.34;;;30.62;59.86
5238;BME280;2639;49.700;7.962;2023-08-21T12:09:27;99271.84;;;30.69;59.22
5238;BME280;2639;49.700;7.962;2023-08-21T12:10:30;99273.63;;;30.73;58.95
5238;BME280;2639;49.700;7.962;2023-08-21T12:11:32;99271.00;;;30.89;57.20
5238;BME280;2639;49.700;7.962;2023-08-21T12:12:36;99269.25;;;31.00;57.02
5238;BME280;2639;49.700;7.962;2023-08-21T12:13:37;99263.06;;;31.07;55.01
5238;BME280;2639;49.700;7.962;2023-08-21T12:14:40;99262.19;;;31.11;54.87
5238;BME280;2639;49.700;7.962;2023-08-21T12:15:42;99261.28;;;31.23;56.45
5238;BME280;2639;49.700;7.962;2023-08-21T12:16:45;99261.28;;;31.32;54.88
5238;BME280;2639;49.700;7.962;2023-08-21T12:17:47;99258.63;;;31.38;53.36
5238;BME280;2639;49.700;7.962;2023-08-21T12:18:50;99263.09;;;31.47;54.37
5238;BME280;2639;49.700;7.962;2023-08-21T12:19:53;99256.88;;;31.54;53.78
5238;BME280;2639;49.700;7.962;2023-08-21T12:20:57;99266.59;;;31.66;54.63
5238;BME280;2639;49.700;7.962;2023-08-21T12:21:58;99261.25;;;31.80;55.36
5238;BME280;2639;49.700;7.962;2023-08-21T12:23:01;99256.75;;;31.91;54.34
5238;BME280;2639;49.700;7.962;2023-08-21T12:24:05;99258.53;;;32.01;54.84
5238;BME280;2639;49.700;7.962;2023-08-21T12:25:08;99257.59;;;32.12;54.18
5238;BME280;2639;49.700;7.962;2023-08-21T12:26:10;99252.19;;;32.30;53.53
5238;BME280;2639;49.700;7.962;2023-08-21T12:27:13;99248.59;;;32.43;52.56
5238;BME280;2639;49.700;7.962;2023-08-21T12:28:15;99258.31;;;32.47;52.06
5238;BME280;2639;49.700;7.962;2023-08-21T12:29:18;99255.66;;;32.44;50.51
5238;BME280;2639;49.700;7.962;2023-08-21T12:30:20;99252.16;;;32.41;50.79
5238;BME280;2639;49.700;7.962;2023-08-21T12:31:23;99249.53;;;32.36;50.30
5238;BME280;2639;49.700;7.962;2023-08-21T12:34:57;99254.88;;;32.30;50.66
5238;BME280;2639;49.700;7.962;2023-08-21T12:36:00;99242.44;;;32.32;50.78
5238;BME280;2639;49.700;7.962;2023-08-21T12:37:02;99245.94;;;32.43;51.44
5238;BME280;2639;49.700;7.962;2023-08-21T12:38:11;99244.16;;;32.52;49.96
5238;BME280;2639;49.700;7.962;2023-08-21T12:39:15;99244.06;;;32.61;49.59
5238;BME280;2639;49.700;7.962;2023-08-21T12:40:19;99239.63;;;32.66;50.62
5238;BME280;2639;49.700;7.962;2023-08-21T12:41:21;99238.69;;;32.70;50.88
5238;BME280;2639;49.700;7.962;2023-08-21T12:42:24;99241.28;;;32.81;50.67
5238;BME280;2639;49.700;7.962;2023-08-21T12:43:25;99249.22;;;32.91;50.69
5238;BME280;2639;49.700;7.962;2023-08-21T12:44:28;99245.59;;;32.99;48.26
5238;BME280;2639;49.700;7.962;2023-08-21T12:45:30;99237.56;;;33.03;47.73
5238;BME280;2639;49.700;7.962;2023-08-21T12:46:33;99236.69;;;33.06;47.46
5238;BME280;2639;49.700;7.962;2023-08-21T12:47:35;99242.03;;;33.07;47.33
5238;BME280;2639;49.700;7.962;2023-08-21T12:48:38;99235.78;;;33.07;46.42
5238;BME280;2639;49.700;7.962;2023-08-21T12:49:40;99242.03;;;33.06;46.70
5238;BME280;2639;49.700;7.962;2023-08-21T12:50:43;99241.09;;;33.07;46.54
5238;BME280;2639;49.700;7.962;2023-08-21T12:51:44;99237.53;;;33.09;46.23
5238;BME280;2639;49.700;7.962;2023-08-21T12:52:47;99233.94;;;33.17;47.73
5238;BME280;2639;49.700;7.962;2023-08-21T12:53:49;99238.38;;;33.19;46.32
5238;BME280;2639;49.700;7.962;2023-08-21T12:54:53;99235.69;;;33.19;46.23
5238;BME280;2639;49.700;7.962;2023-08-21T12:55:55;99242.69;;;33.28;46.97
5238;BME280;2639;49.700;7.962;2023-08-21T12:56:58;99243.59;;;33.27;45.96
5238;BME280;2639;49.700;7.962;2023-08-21T12:58:00;99241.03;;;33.19;45.14
5238;BME280;2639;49.700;7.962;2023-08-21T12:59:03;99239.13;;;33.33;46.61
5238;BME280;2639;49.700;7.962;2023-08-21T13:00:52;99234.56;;;33.42;46.42
5238;BME280;2639;49.700;7.962;2023-08-21T13:01:55;99238.16;;;33.41;45.49
5238;BME280;2639;49.700;7.962;2023-08-21T13:02:57;99234.63;;;33.39;45.24
5238;BME280;2639;49.700;7.962;2023-08-21T13:04:00;99234.63;;;33.39;44.74
5238;BME280;2639;49.700;7.962;2023-08-21T13:05:02;99235.56;;;33.31;44.21
5238;BME280;2639;49.700;7.962;2023-08-21T13:06:08;99232.97;;;33.28;46.71
5238;BME280;2639;49.700;7.962;2023-08-21T13:07:11;99236.44;;;33.33;47.02
5238;BME280;2639;49.700;7.962;2023-08-21T13:08:14;99231.91;;;33.43;47.82
5238;BME280;2639;49.700;7.962;2023-08-21T13:09:17;99228.28;;;33.49;47.37
5238;BME280;2639;49.700;7.962;2023-08-21T13:10:22;99225.63;;;33.52;46.72
5238;BME280;2639;49.700;7.962;2023-08-21T13:11:26;99234.56;;;33.45;44.81
5238;BME280;2639;49.700;7.962;2023-08-21T13:12:31;99235.47;;;33.42;45.06
5238;BME280;2639;49.700;7.962;2023-08-21T13:13:35;99227.47;;;33.44;45.28
5238;BME280;2639;49.700;7.962;2023-08-21T13:14:39;99226.53;;;33.48;45.78
5238;BME280;2639;49.700;7.962;2023-08-21T13:15:41;99224.78;;;33.44;44.96
5238;BME280;2639;49.700;7.962;2023-08-21T13:16:46;99231.00;;;33.47;45.31
5238;BME280;2639;49.700;7.962;2023-08-21T13:17:48;99229.25;;;33.42;44.57
5238;BME280;2639;49.700;7.962;2023-08-21T13:18:51;99225.63;;;33.49;44.66
5238;BME280;2639;49.700;7.962;2023-08-21T13:19:52;99220.25;;;33.57;45.16
5238;BME280;2639;49.700;7.962;2023-08-21T13:20:55;99218.44;;;33.63;45.78
5238;BME280;2639;49.700;7.962;2023-08-21T13:21:57;99225.47;;;33.67;45.87
5238;BME280;2639;49.700;7.962;2023-08-21T13:23:00;99225.47;;;33.67;46.42
5238;BME280;2639;49.700;7.962;2023-08-21T13:24:02;99220.13;;;33.70;45.10
5238;BME280;2639;49.700;7.962;2023-08-21T13:25:06;99220.94;;;33.77;44.64
5238;BME280;2639;49.700;7.962;2023-08-21T13:26:09;99216.38;;;33.87;45.04
5238;BME280;2639;49.700;7.962;2023-08-21T13:27:12;99217.19;;;33.90;44.84
5238;BME280;2639;49.700;7.962;2023-08-21T13:28:16;99218.94;;;33.96;43.88
5238;BME280;2639;49.700;7.962;2023-08-21T13:29:18;99220.66;;;33.99;44.20
5238;BME280;2639;49.700;7.962;2023-08-21T13:30:20;99225.94;;;34.02;44.28
5238;BME280;2639;49.700;7.962;2023-08-21T13:31:23;99217.91;;;34.09;44.24
5238;BME280;2639;49.700;7.962;2023-08-21T13:32:25;99222.28;;;34.09;44.72
5238;BME280;2639;49.700;7.962;2023-08-21T13:33:28;99219.75;;;34.01;43.46